Flugplatz Nabern/Teck (EDTN)

Hier findest Du alle Informationen zum Flugplatz Nabern/Teck (EDTN).

Informationen für Piloten zum Flugplatz Nabern/Teck

Hier findest Du alle relevanten Informationen, die Du als Pilot benötigst, um Nabern/Teck anzufliegen.

Flugplatz: Nabern/Teck ICAO-Code: EDTN
Frequenz Turm: 118,325 Mhz GAFOR Gebiet: 53
Frequenz Ground: 118,325 Mhz Mogas: nein
Platzrunde: NE 2000 ft Landegebühr: -
Platzhöhe: - Sunrise: 05:12 Uhr UTC
Pisten: 14/32 - 570 m x 30 m, GRAS Sunset: 17:14 Uhr UTC

Mitglieder, die in Nabern/Teck fliegen

Flugwetter am Flugplatz Nabern/Teck

Die METAR Information stammen aus EDDS (20.60 km entfernt).

METAR Code:
2022/09/26 04:20
EDDS 260420Z AUTO VRB01KT CAVOK 09/08 Q1010 TEMPO 4000 BR

Temperatur: 9,0 °C Niederschlag: - Wind: 2,0 kt
Temperatur (min.): 7,8 °C Luftdruck: 1010 hPa Windrichtung: -
Temperatur (max.): 10,8 °C Luftfeuchtigkeit: 95 % Bewölkung: -

Flugschulen am Flugplatz Nabern/Teck

Am Flugplatz Nabern/Teck gibt es eine Flugschule.

Benachbarte Flugplätze und Flugschulen

Es gibt 29 weitere Flugplätze in einem Umkreis von 50 km um den Flugplatz Nabern/Teck.

Jetzt anmelden

Passwort vergessen

Umfrage Archiv

Sendet Ihr ADS-B und/oder FLARM?

Ja
83.8 %
Nein
16.2 %
Stimmen: 222 | Diskussion
Anzeige: Roland Aircraft
Statistik Alle Mitglieder

Aktuell sind 49 Besucher online, davon 2 Mitglieder und 47 Gäste.


Mitglieder online:
NRW-Aviator  Stefan G. 

Anzeige: ULPower Aero Engines Anzeige: Pocket FMS